Time;durP1;ratioP1;P1;durP2;ratioP2;P2;SDS_P1;SDS_P2;PMS_P1;PMS_P2;Temp;Humidity;BMP_temperature;BMP_pressure;BME280_temperature;BME280_humidity;BME280_pressure;Samples;Min_cycle;Max_cycle;Signal;HPM_P1;HPM_P2
2023/07/13 00:01:17;;;;;;;4.15;2.78;;;;;;;23.34;56.67;98831.44;5088274;28;20044;-70
2023/07/13 00:03:44;;;;;;;5.03;2.95;;;;;;;23.30;56.72;98832.81;5088291;28;20292;-70
2023/07/13 00:06:11;;;;;;;4.20;3.15;;;;;;;23.26;56.83;98842.31;5088276;28;20040;-70
2023/07/13 00:08:37;;;;;;;4.03;2.55;;;;;;;22.60;57.03;98727.44;5087628;28;20064;-70
2023/07/13 00:11:06;;;;;;;3.42;2.40;;;;;;;23.30;56.63;98823.88;5087353;28;20040;-70
2023/07/13 00:13:33;;;;;;;5.60;2.80;;;;;;;23.08;57.12;98794.91;5087314;28;20290;-70
2023/07/13 00:16:00;;;;;;;3.55;1.90;;;;;;;23.24;56.76;98816.44;5087562;28;20064;-70
2023/07/13 00:18:29;;;;;;;4.03;2.03;;;;;;;23.22;56.85;98813.06;5088026;28;20048;-70
2023/07/13 00:21:05;;;;;;;2.72;1.80;;;;;;;23.19;56.69;98806.16;5086520;28;20046;-70
2023/07/13 00:23:33;;;;;;;4.03;2.17;;;;;;;23.27;56.54;98802.59;5087330;28;20044;-70
2023/07/13 00:26:00;;;;;;;3.95;3.05;;;;;;;23.27;56.63;98799.88;5087357;28;20178;-69
2023/07/13 00:28:27;;;;;;;3.42;2.00;;;;;;;23.17;57.09;98791.13;5087584;28;20041;-70
2023/07/13 00:30:54;;;;;;;3.75;2.80;;;;;;;23.12;56.77;98791.66;5087244;28;20071;-70
2023/07/13 00:33:21;;;;;;;4.25;2.67;;;;;;;23.05;56.83;98794.25;5087428;28;20045;-69
2023/07/13 00:35:49;;;;;;;3.65;2.30;;;;;;;23.01;56.72;98789.38;5087690;28;20295;-70
2023/07/13 00:38:15;;;;;;;3.60;2.03;;;;;;;23.09;56.49;98786.63;5087089;28;20371;-69
2023/07/13 00:40:42;;;;;;;2.97;1.80;;;;;;;22.74;57.06;98760.97;5087518;28;20093;-70
2023/07/13 00:43:13;;;;;;;3.33;1.90;;;;;;;22.98;56.47;98781.63;5088077;28;20040;-70
2023/07/13 00:46:24;;;;;;;3.53;1.70;;;;;;;22.92;56.56;98782.31;5087430;28;20048;-70
2023/07/13 00:48:52;;;;;;;3.58;1.80;;;;;;;22.90;56.35;98781.66;5087171;28;20120;-70
2023/07/13 00:51:26;;;;;;;3.75;2.00;;;;;;;22.91;56.37;98769.84;5086816;28;20080;-70
2023/07/13 00:53:55;;;;;;;3.85;2.10;;;;;;;22.82;56.55;98754.69;5087122;28;20044;-70
2023/07/13 00:56:22;;;;;;;3.22;1.83;;;;;;;22.83;56.46;98750.97;5086763;28;20108;-70
2023/07/13 00:58:50;;;;;;;3.17;1.83;;;;;;;22.75;56.13;98751.00;5086662;28;20037;-70
2023/07/13 01:01:16;;;;;;;4.82;2.08;;;;;;;22.91;55.59;98740.13;5086788;28;20040;-69
2023/07/13 01:03:44;;;;;;;3.17;1.70;;;;;;;22.85;55.40;98738.13;5086799;28;20110;-70
2023/07/13 01:06:11;;;;;;;4.65;2.50;;;;;;;22.82;54.89;98722.28;5086485;28;20036;-70
2023/07/13 01:08:39;;;;;;;2.30;1.50;;;;;;;22.77;54.31;98727.38;5086689;28;20045;-70
2023/07/13 01:11:07;;;;;;;2.75;1.83;;;;;;;22.76;54.24;98712.19;5085580;28;20052;-70
2023/07/13 01:13:34;;;;;;;2.65;1.60;;;;;;;22.86;53.07;98710.94;5086637;28;20040;-70
2023/07/13 01:16:07;;;;;;;2.63;1.67;;;;;;;22.86;52.61;98716.34;5086366;28;20061;-70
2023/07/13 01:18:34;;;;;;;5.25;2.03;;;;;;;22.81;52.23;98723.28;5086648;28;20247;-70
2023/07/13 01:21:04;;;;;;;2.75;1.60;;;;;;;22.93;52.22;98708.34;5085780;28;20048;-70
2023/07/13 01:23:32;;;;;;;2.83;1.60;;;;;;;22.78;51.91;98697.47;5086738;28;20090;-71
2023/07/13 01:26:00;;;;;;;3.42;1.67;;;;;;;22.88;51.91;98729.66;5086179;28;20048;-70
2023/07/13 01:28:28;;;;;;;2.78;1.48;;;;;;;22.86;51.73;98715.50;5086412;28;20044;-70
2023/07/13 01:30:55;;;;;;;3.60;1.63;;;;;;;22.79;51.92;98707.25;5086654;28;20142;-70
2023/07/13 01:33:22;;;;;;;2.35;1.40;;;;;;;22.89;51.44;98709.72;5086326;28;20114;-71
2023/07/13 01:35:49;;;;;;;3.38;1.55;;;;;;;22.75;51.24;98675.38;5086568;28;20248;-71
2023/07/13 01:38:20;;;;;;;4.15;1.90;;;;;;;22.85;51.02;98706.53;5086493;28;20181;-71
2023/07/13 01:40:47;;;;;;;3.50;1.75;;;;;;;22.86;51.18;98699.28;5086126;28;20036;-71
2023/07/13 01:43:14;;;;;;;3.35;2.17;;;;;;;22.84;50.80;98693.22;5085813;28;20284;-71
2023/07/13 01:45:41;;;;;;;2.58;1.60;;;;;;;22.85;50.87;98698.44;5085315;28;20226;-71
2023/07/13 01:48:08;;;;;;;2.28;1.35;;;;;;;22.88;50.95;98689.97;5086064;28;20102;-70
2023/07/13 01:50:35;;;;;;;2.60;1.55;;;;;;;22.87;50.91;98674.78;5086305;28;20045;-70
2023/07/13 01:53:01;;;;;;;2.55;1.50;;;;;;;22.84;51.18;98669.75;5085758;28;20304;-69
2023/07/13 01:55:30;;;;;;;3.63;1.90;;;;;;;22.61;51.05;98647.28;5085959;28;20045;-70
2023/07/13 01:57:57;;;;;;;2.75;1.77;;;;;;;22.80;51.39;98673.81;5085655;28;20048;-70
2023/07/13 02:00:24;;;;;;;2.97;1.60;;;;;;;22.84;51.19;98671.59;5085837;28;20090;-70
2023/07/13 02:02:51;;;;;;;2.88;1.70;;;;;;;22.84;51.25;98696.75;5084810;28;20059;-69
2023/07/13 02:05:18;;;;;;;2.30;1.52;;;;;;;22.79;51.55;98706.41;5085606;28;20041;-69
2023/07/13 02:07:45;;;;;;;2.63;1.75;;;;;;;22.80;51.69;98698.13;5085861;28;20044;-70
2023/07/13 02:10:13;;;;;;;3.58;1.70;;;;;;;22.81;51.70;98696.28;5086087;28;20049;-70
2023/07/13 02:12:47;;;;;;;3.03;1.50;;;;;;;22.80;51.83;98700.00;5085523;28;20098;-70
2023/07/13 02:15:18;;;;;;;2.67;1.77;;;;;;;22.85;51.73;98695.75;5084468;28;20061;-70
2023/07/13 02:17:44;;;;;;;3.38;2.10;;;;;;;22.79;52.29;98709.97;5085737;28;20063;-70
2023/07/13 02:20:12;;;;;;;3.33;1.83;;;;;;;22.89;52.00;98709.72;5086014;28;20184;-70
2023/07/13 02:22:38;;;;;;;2.58;1.40;;;;;;;22.82;52.25;98719.56;5085647;28;20063;-69
2023/07/13 02:25:06;;;;;;;3.35;1.77;;;;;;;22.71;52.39;98731.63;5085978;28;20196;-69
2023/07/13 02:27:33;;;;;;;2.75;1.85;;;;;;;22.84;52.75;98763.47;5085661;28;20044;-70
2023/07/13 02:30:01;;;;;;;3.83;1.90;;;;;;;22.88;52.69;98773.72;5085336;28;20312;-70
2023/07/13 02:32:28;;;;;;;4.78;2.10;;;;;;;22.79;53.10;98790.16;5087891;28;20360;-70
2023/07/13 02:34:54;;;;;;;2.50;1.73;;;;;;;22.77;53.39;98792.19;5089787;28;20193;-70
2023/07/13 02:37:21;;;;;;;5.10;2.10;;;;;;;22.77;53.31;98805.69;5089685;28;20055;-71
2023/07/13 02:39:48;;;;;;;11.65;2.90;;;;;;;22.75;53.44;98827.50;5089366;28;20048;-71
2023/07/13 02:42:15;;;;;;;3.65;1.90;;;;;;;22.78;53.40;98818.19;5089651;28;20058;-71
2023/07/13 02:44:41;;;;;;;2.55;1.90;;;;;;;22.80;53.59;98856.69;5089272;28;20045;-71
2023/07/13 02:47:10;;;;;;;2.65;1.85;;;;;;;22.80;53.75;98867.47;5089786;28;20101;-71
2023/07/13 02:49:36;;;;;;;3.85;1.80;;;;;;;22.77;53.99;98889.44;5089405;28;20051;-70
2023/07/13 02:52:04;;;;;;;2.75;1.83;;;;;;;22.81;54.44;98879.97;5089623;28;20048;-71
2023/07/13 02:54:31;;;;;;;5.07;2.20;;;;;;;22.68;54.55;98892.16;5089359;28;20094;-71
2023/07/13 02:56:58;;;;;;;3.10;2.10;;;;;;;22.14;54.91;98815.44;5088180;28;20040;-71
2023/07/13 02:59:24;;;;;;;2.92;1.80;;;;;;;22.68;55.62;98926.44;5089250;28;20045;-71
2023/07/13 03:01:51;;;;;;;5.68;2.30;;;;;;;22.72;55.70;98927.78;5087976;28;20052;-71
2023/07/13 03:04:20;;;;;;;3.70;2.03;;;;;;;22.66;55.72;98937.41;5089750;28;20107;-71
2023/07/13 03:06:47;;;;;;;4.10;1.77;;;;;;;22.61;56.15;98939.78;5089118;28;20040;-71
2023/07/13 03:09:13;;;;;;;3.40;2.05;;;;;;;22.60;56.14;98945.34;5089381;28;20253;-71
2023/07/13 03:11:40;;;;;;;7.72;2.17;;;;;;;22.42;57.29;98943.66;5087944;28;20285;-71
2023/07/13 03:14:08;;;;;;;2.90;1.98;;;;;;;22.51;56.91;98949.88;5089225;28;20098;-72
2023/07/13 03:16:35;;;;;;;2.92;2.10;;;;;;;22.52;57.52;98948.88;5088455;28;20059;-71
2023/07/13 03:19:01;;;;;;;4.10;2.33;;;;;;;22.47;57.77;98951.25;5089137;28;20289;-70
2023/07/13 03:21:30;;;;;;;2.83;1.88;;;;;;;22.49;58.35;98951.06;5088460;28;20051;-70
2023/07/13 03:23:56;;;;;;;3.50;2.25;;;;;;;22.37;58.55;98950.53;5089060;28;20048;-71
2023/07/13 03:26:23;;;;;;;6.20;2.13;;;;;;;22.44;58.29;98940.78;5088712;28;20044;-70
2023/07/13 03:28:50;;;;;;;3.65;2.08;;;;;;;22.43;58.48;98933.69;5088686;28;20238;-70
2023/07/13 03:31:19;;;;;;;2.60;1.67;;;;;;;22.20;59.17;98921.88;5087782;28;20040;-70
2023/07/13 03:33:46;;;;;;;4.35;2.00;;;;;;;22.33;59.04;98941.94;5088031;28;20277;-70
2023/07/13 03:36:18;;;;;;;3.58;1.80;;;;;;;22.19;59.94;98930.97;5088469;28;20048;-70
2023/07/13 03:38:47;;;;;;;3.63;2.20;;;;;;;22.21;59.83;98931.66;5087361;28;20093;-70
2023/07/13 03:41:14;;;;;;;2.55;1.58;;;;;;;22.19;59.91;98912.09;5088110;28;20040;-70
2023/07/13 03:43:41;;;;;;;4.40;2.10;;;;;;;22.29;60.65;98934.34;5087293;28;20044;-70
2023/07/13 03:46:08;;;;;;;3.28;1.88;;;;;;;22.06;60.97;98937.72;5088122;28;20250;-70
2023/07/13 03:48:35;;;;;;;3.22;1.60;;;;;;;22.09;61.07;98944.63;5088020;28;20044;-71
2023/07/13 03:51:02;;;;;;;4.20;2.42;;;;;;;22.05;61.32;98944.13;5087078;28;20057;-71
2023/07/13 03:53:29;;;;;;;2.70;1.80;;;;;;;22.08;61.26;98937.56;5088037;28;20048;-71
2023/07/13 03:55:57;;;;;;;4.97;1.90;;;;;;;21.97;61.53;98938.72;5088173;28;20078;-70
2023/07/13 03:58:30;;;;;;;2.30;1.52;;;;;;;22.05;61.51;98952.22;5088182;28;20045;-70
2023/07/13 04:00:57;;;;;;;4.45;2.53;;;;;;;21.98;61.43;98944.97;5088133;28;20056;-70
2023/07/13 04:03:28;;;;;;;4.03;1.80;;;;;;;21.85;61.85;98925.72;5087796;28;20040;-71
2023/07/13 04:05:59;;;;;;;3.10;2.10;;;;;;;21.92;62.43;98956.44;5088049;28;20040;-71
2023/07/13 04:08:27;;;;;;;3.25;1.90;;;;;;;21.73;63.94;98952.16;5087732;28;20068;-71
2023/07/13 04:10:54;;;;;;;3.17;1.80;;;;;;;21.94;63.80;98949.00;5087925;28;20041;-71
2023/07/13 04:13:23;;;;;;;4.32;2.53;;;;;;;21.90;63.65;98948.50;5087897;28;20044;-71
2023/07/13 04:15:50;;;;;;;3.10;1.90;;;;;;;21.87;64.62;98951.53;5087643;28;20060;-71
2023/07/13 04:18:17;;;;;;;3.28;2.00;;;;;;;21.66;65.81;98957.34;5088082;28;20093;-71
2023/07/13 04:20:44;;;;;;;2.85;1.55;;;;;;;21.81;64.52;98951.34;5088055;28;20052;-71
2023/07/13 04:23:11;;;;;;;2.95;1.85;;;;;;;21.76;64.52;98932.94;5087758;28;20299;-71
2023/07/13 04:25:38;;;;;;;5.05;2.40;;;;;;;21.65;64.44;98901.72;5087393;28;20358;-71
2023/07/13 04:28:06;;;;;;;3.38;2.10;;;;;;;21.82;64.83;98915.28;5087995;28;20042;-71
2023/07/13 04:30:34;;;;;;;3.30;2.40;;;;;;;21.75;66.11;98905.13;5087672;28;20040;-71
2023/07/13 04:33:01;;;;;;;5.55;2.15;;;;;;;21.62;67.28;98896.66;5087219;28;20090;-72
2023/07/13 04:35:27;;;;;;;3.33;1.88;;;;;;;21.62;67.96;98893.13;5086324;28;20094;-71
2023/07/13 04:37:54;;;;;;;4.78;2.28;;;;;;;21.55;68.50;98892.09;5087383;28;20055;-71
2023/07/13 04:40:21;;;;;;;3.85;2.33;;;;;;;21.34;68.36;98877.22;5087335;28;20060;-71
2023/07/13 04:42:48;;;;;;;4.20;1.95;;;;;;;21.62;67.02;98885.88;5086082;28;20036;-71
2023/07/13 04:45:15;;;;;;;3.10;1.90;;;;;;;21.41;68.59;98875.56;5086892;28;20285;-71
2023/07/13 04:47:43;;;;;;;3.05;2.13;;;;;;;20.99;68.29;98775.91;5087172;28;20052;-71
2023/07/13 04:50:11;;;;;;;3.08;2.03;;;;;;;21.12;68.42;98784.38;5086863;28;20052;-71
2023/07/13 04:52:38;;;;;;;3.85;2.40;;;;;;;21.37;69.31;98849.09;5087321;28;20048;-71
2023/07/13 04:55:06;;;;;;;4.90;2.80;;;;;;;21.59;68.61;98850.31;5086227;28;20111;-71
2023/07/13 04:57:32;;;;;;;3.53;2.45;;;;;;;21.58;68.47;98848.63;5086840;28;20055;-71
2023/07/13 05:00:00;;;;;;;4.10;2.25;;;;;;;20.98;68.16;98730.28;5086580;28;20090;-71
2023/07/13 05:02:28;;;;;;;3.55;1.88;;;;;;;21.58;68.37;98833.31;5086811;28;20056;-71
2023/07/13 05:04:56;;;;;;;3.42;1.90;;;;;;;21.57;67.58;98836.16;5085724;28;20091;-71
2023/07/13 05:07:23;;;;;;;3.63;2.08;;;;;;;21.54;68.28;98834.66;5086700;28;20173;-71
2023/07/13 05:09:49;;;;;;;3.40;1.98;;;;;;;21.67;66.13;98831.44;5086488;28;20056;-71
2023/07/13 05:12:16;;;;;;;3.13;2.00;;;;;;;21.62;66.45;98829.25;5086677;28;20044;-71
2023/07/13 05:14:43;;;;;;;4.07;2.13;;;;;;;21.64;68.60;98831.78;5086404;28;20103;-71
2023/07/13 05:17:09;;;;;;;3.78;2.83;;;;;;;21.52;68.72;98819.66;5086590;28;20094;-71
2023/07/13 05:19:37;;;;;;;4.63;2.30;;;;;;;21.38;69.63;98816.59;5086527;28;20044;-71
2023/07/13 05:22:05;;;;;;;3.55;1.80;;;;;;;21.35;70.08;98810.69;5086147;28;20053;-71
2023/07/13 05:24:32;;;;;;;3.05;1.60;;;;;;;21.41;69.48;98810.88;5086268;28;20049;-70
2023/07/13 05:26:59;;;;;;;4.15;1.63;;;;;;;21.41;67.67;98810.03;5086174;28;20040;-71
2023/07/13 05:29:25;;;;;;;3.35;1.60;;;;;;;21.50;67.48;98816.28;5086113;28;20304;-71
2023/07/13 05:31:52;;;;;;;2.70;1.65;;;;;;;21.49;65.83;98820.81;5086325;28;20102;-70
2023/07/13 05:34:19;;;;;;;2.28;1.40;;;;;;;21.66;64.44;98824.38;5086279;28;20293;-71
2023/07/13 05:36:45;;;;;;;2.05;1.40;;;;;;;21.62;64.74;98841.91;5086526;28;20165;-71
2023/07/13 05:39:13;;;;;;;3.78;1.60;;;;;;;21.62;63.46;98840.03;5086191;28;20094;-71
2023/07/13 05:41:40;;;;;;;2.78;1.73;;;;;;;21.62;63.35;98845.44;5085808;28;20044;-71
2023/07/13 05:44:07;;;;;;;2.15;1.45;;;;;;;21.62;62.54;98856.22;5085504;28;20032;-71
2023/07/13 05:46:34;;;;;;;2.65;1.70;;;;;;;21.68;62.58;98855.56;5086347;28;20060;-71
2023/07/13 05:49:01;;;;;;;2.88;1.45;;;;;;;21.58;62.65;98860.25;5085885;28;20048;-71
2023/07/13 05:51:27;;;;;;;2.30;1.50;;;;;;;21.41;62.61;98831.59;5086047;28;20276;-71
2023/07/13 05:53:54;;;;;;;3.00;1.90;;;;;;;21.56;63.26;98858.75;5085826;28;20064;-71
2023/07/13 05:56:23;;;;;;;3.28;2.03;;;;;;;21.45;64.06;98860.75;5085710;28;20054;-70
2023/07/13 05:58:50;;;;;;;3.72;2.05;;;;;;;21.46;63.98;98870.53;5084822;28;20119;-70
2023/07/13 06:01:17;;;;;;;3.03;1.95;;;;;;;21.32;64.48;98871.16;5085619;28;20048;-71
2023/07/13 06:03:44;;;;;;;2.83;1.90;;;;;;;21.29;64.81;98879.56;5085797;28;20201;-71
2023/07/13 06:06:11;;;;;;;3.17;1.80;;;;;;;21.32;64.43;98881.94;5084542;28;20044;-71
2023/07/13 06:08:38;;;;;;;2.63;1.80;;;;;;;20.92;65.09;98811.72;5086056;28;20052;-70
2023/07/13 06:11:07;;;;;;;3.30;1.60;;;;;;;21.30;65.05;98883.97;5085807;28;20312;-70
2023/07/13 06:13:35;;;;;;;3.78;2.03;;;;;;;21.26;65.14;98893.38;5084931;28;20273;-71
2023/07/13 06:16:04;;;;;;;3.13;1.55;;;;;;;21.20;64.96;98894.03;5085283;28;20117;-71
2023/07/13 06:18:33;;;;;;;3.20;1.90;;;;;;;21.16;64.99;98897.22;5085733;28;20048;-71
2023/07/13 06:21:00;;;;;;;2.53;1.63;;;;;;;21.19;65.06;98905.81;5085964;28;20052;-70
2023/07/13 06:23:27;;;;;;;3.15;1.70;;;;;;;21.19;65.36;98919.28;5085627;28;20044;-71
2023/07/13 06:25:53;;;;;;;3.22;1.70;;;;;;;21.11;65.28;98921.94;5085938;28;20188;-71
2023/07/13 06:28:20;;;;;;;4.75;2.03;;;;;;;21.09;66.30;98927.50;5085624;28;20052;-71
2023/07/13 06:30:48;;;;;;;2.92;1.75;;;;;;;21.11;65.78;98924.66;5085412;28;20044;-71
2023/07/13 06:33:15;;;;;;;4.15;2.17;;;;;;;21.12;65.50;98948.75;5085834;28;20036;-71
2023/07/13 06:35:41;;;;;;;3.17;1.63;;;;;;;20.46;65.53;98835.44;5084990;28;20044;-71
2023/07/13 06:38:08;;;;;;;2.75;1.60;;;;;;;21.07;66.25;98940.28;5085262;28;20219;-71
2023/07/13 06:40:35;;;;;;;3.33;1.80;;;;;;;21.11;66.62;98956.97;5085784;28;20050;-70
2023/07/13 06:43:02;;;;;;;2.85;1.70;;;;;;;21.09;66.11;98954.44;5085599;28;20054;-71
2023/07/13 06:45:29;;;;;;;4.05;1.80;;;;;;;21.13;66.44;98963.06;5085359;28;20146;-70
2023/07/13 06:47:57;;;;;;;4.65;2.00;;;;;;;20.81;66.63;98912.53;5085467;28;20040;-71
2023/07/13 06:50:23;;;;;;;2.70;1.60;;;;;;;21.04;66.69;98959.47;5085090;28;20048;-70
2023/07/13 06:52:50;;;;;;;2.70;1.70;;;;;;;21.14;66.11;98948.56;5085343;28;20050;-70
2023/07/13 06:55:17;;;;;;;3.92;1.55;;;;;;;21.13;66.32;98963.91;5085355;28;20082;-71
2023/07/13 06:57:44;;;;;;;2.70;1.60;;;;;;;21.07;66.28;98955.63;5085332;28;20048;-71
2023/07/13 07:00:12;;;;;;;2.38;1.80;;;;;;;21.15;66.01;98966.44;5085225;28;20102;-71
2023/07/13 07:02:38;;;;;;;2.15;1.60;;;;;;;21.10;65.87;98983.09;5085085;28;20044;-71
2023/07/13 07:05:08;;;;;;;2.53;1.58;;;;;;;21.19;65.95;98950.78;5067435;28;20044;-71
2023/07/13 07:07:34;;;;;;;2.95;1.75;;;;;;;21.23;66.15;98953.00;5084150;28;20232;-71
2023/07/13 07:10:02;;;;;;;3.47;1.63;;;;;;;21.17;66.40;98953.63;5085176;28;20098;-71
2023/07/13 07:12:29;;;;;;;3.88;1.77;;;;;;;21.09;66.85;98919.41;5085447;28;20178;-70
2023/07/13 07:14:56;;;;;;;2.85;1.58;;;;;;;21.25;66.72;98950.97;5084890;28;20117;-70
2023/07/13 07:17:23;;;;;;;2.88;1.70;;;;;;;21.26;66.28;98949.97;5084003;28;20194;-70
2023/07/13 07:19:49;;;;;;;2.33;1.67;;;;;;;21.26;65.75;98962.59;5087159;28;20094;-70
2023/07/13 07:22:17;;;;;;;2.58;1.67;;;;;;;21.25;64.94;98959.06;5088708;28;20040;-70
2023/07/13 07:24:44;;;;;;;2.50;1.70;;;;;;;21.25;64.71;98945.59;5088788;28;20194;-70
2023/07/13 07:27:11;;;;;;;3.10;1.77;;;;;;;21.26;64.36;98952.66;5088702;28;20040;-70
2023/07/13 07:29:38;;;;;;;3.35;1.60;;;;;;;21.25;64.46;98945.59;5088004;28;20040;-70
2023/07/13 07:32:05;;;;;;;2.67;1.67;;;;;;;21.22;63.94;98954.00;5087451;28;20078;-70
2023/07/13 07:34:32;;;;;;;2.67;1.77;;;;;;;20.65;64.34;98854.03;5087344;28;20048;-70
2023/07/13 07:37:00;;;;;;;2.78;1.50;;;;;;;21.32;63.87;98952.03;5087407;28;20040;-70
2023/07/13 07:39:29;;;;;;;2.42;1.45;;;;;;;21.33;63.69;98942.94;5087383;28;20045;-70
2023/07/13 07:41:56;;;;;;;2.53;1.40;;;;;;;21.35;63.67;98949.00;5088479;28;20048;-70
2023/07/13 07:44:23;;;;;;;2.33;1.50;;;;;;;20.94;63.39;98890.53;5088259;28;20044;-70
2023/07/13 07:46:50;;;;;;;3.13;1.85;;;;;;;21.38;63.26;98964.84;5088126;28;20090;-71
2023/07/13 07:49:16;;;;;;;3.58;1.73;;;;;;;21.34;63.25;98963.47;5088085;28;20044;-70
2023/07/13 07:51:43;;;;;;;2.50;1.58;;;;;;;21.38;63.45;98966.69;5088328;28;20055;-71
2023/07/13 07:54:10;;;;;;;2.67;1.52;;;;;;;21.06;63.13;98908.13;5088514;28;20048;-71
2023/07/13 07:56:38;;;;;;;2.90;1.65;;;;;;;21.40;62.92;98943.97;5088664;28;20239;-71
2023/07/13 07:59:05;;;;;;;2.50;1.55;;;;;;;21.40;62.70;98951.22;5088235;28;20312;-72
2023/07/13 08:01:31;;;;;;;2.97;1.80;;;;;;;21.41;62.13;98967.22;5088122;28;20259;-70
2023/07/13 08:03:58;;;;;;;3.30;1.80;;;;;;;21.45;62.02;98946.16;5087958;28;20045;-70
2023/07/13 08:06:25;;;;;;;2.72;1.70;;;;;;;21.57;61.99;98968.28;5087183;28;20048;-70
2023/07/13 08:08:52;;;;;;;5.50;1.90;;;;;;;21.68;61.88;98952.63;5088138;28;20048;-70
2023/07/13 08:11:19;;;;;;;2.20;1.40;;;;;;;21.87;61.59;98966.88;5087921;28;20060;-70
2023/07/13 08:13:47;;;;;;;3.33;1.77;;;;;;;21.86;61.41;98968.72;5087870;28;20071;-70
2023/07/13 08:16:13;;;;;;;2.50;1.55;;;;;;;21.85;61.18;98928.44;5087288;28;20057;-70
2023/07/13 08:18:40;;;;;;;3.13;1.80;;;;;;;19.85;60.41;98570.97;5087470;28;20232;-70
2023/07/13 08:21:08;;;;;;;2.60;1.77;;;;;;;22.39;60.46;98964.72;5087744;28;20047;-70
2023/07/13 08:23:36;;;;;;;2.95;1.60;;;;;;;22.49;59.86;98973.53;5087904;28;20052;-70
2023/07/13 08:26:04;;;;;;;3.05;2.08;;;;;;;22.69;59.91;98974.03;5087627;28;20044;-71
2023/07/13 08:28:32;;;;;;;4.97;1.77;;;;;;;22.93;59.17;98982.09;5087539;28;20040;-71
2023/07/13 08:31:03;;;;;;;5.65;2.03;;;;;;;22.93;58.60;98968.59;5087583;28;20072;-71
2023/07/13 08:33:30;;;;;;;3.45;1.98;;;;;;;23.09;58.12;98974.97;5086239;28;20036;-71
2023/07/13 08:35:57;;;;;;;2.63;1.83;;;;;;;23.22;57.81;98970.69;5086838;28;20090;-70
2023/07/13 08:38:24;;;;;;;2.70;1.90;;;;;;;23.30;56.75;98957.19;5087936;28;20071;-70
2023/07/13 08:40:53;;;;;;;3.20;2.20;;;;;;;23.45;56.69;98972.66;5086931;28;20040;-70
2023/07/13 08:43:23;;;;;;;2.65;1.77;;;;;;;23.46;56.57;98975.19;5086590;28;20067;-70
2023/07/13 08:45:54;;;;;;;3.92;2.00;;;;;;;23.53;56.09;98973.47;5087210;28;20086;-70
2023/07/13 08:48:28;;;;;;;3.35;2.05;;;;;;;23.76;55.78;98968.09;5087427;28;20055;-71
2023/07/13 08:51:01;;;;;;;4.13;2.10;;;;;;;23.79;55.62;98973.16;5086901;28;20117;-71
2023/07/13 08:53:48;;;;;;;3.25;2.10;;;;;;;23.71;55.69;98967.81;5069731;28;20079;-71
2023/07/13 08:56:22;;;;;;;3.42;2.10;;;;;;;23.04;55.32;98833.09;5086953;28;20288;-72
2023/07/13 08:58:55;;;;;;;5.05;2.00;;;;;;;24.01;55.45;98963.41;5086878;28;20036;-72
2023/07/13 09:01:29;;;;;;;3.00;2.10;;;;;;;24.07;55.05;98959.16;5085821;28;20264;-71
2023/07/13 09:04:05;;;;;;;3.03;2.33;;;;;;;24.20;55.08;98986.47;5086829;28;20044;-71
2023/07/13 09:06:46;;;;;;;3.28;2.55;;;;;;;24.20;54.45;98971.06;5087092;28;20074;-71
2023/07/13 09:09:27;;;;;;;3.28;2.50;;;;;;;24.13;55.02;98974.66;5086570;28;20170;-71
2023/07/13 09:11:59;;;;;;;4.03;2.38;;;;;;;24.28;54.99;98984.53;5086954;28;20311;-71
2023/07/13 09:14:42;;;;;;;4.10;2.67;;;;;;;24.61;54.59;98974.25;5086219;28;20323;-71
2023/07/13 09:17:15;;;;;;;4.68;2.63;;;;;;;24.68;54.38;98984.41;5086294;28;20059;-71
2023/07/13 09:19:47;;;;;;;5.22;2.70;;;;;;;24.81;53.91;98980.03;5086874;28;20044;-71
2023/07/13 09:22:20;;;;;;;4.00;2.88;;;;;;;24.59;54.09;98975.47;5085353;28;20045;-71
2023/07/13 09:24:54;;;;;;;3.77;3.07;;;;;;;24.67;53.93;98967.31;5085162;28;20337;-71
2023/07/13 09:27:25;;;;;;;3.90;2.90;;;;;;;24.84;53.53;98979.66;5086082;28;20045;-71
2023/07/13 09:29:58;;;;;;;4.50;3.05;;;;;;;24.63;53.08;98958.66;5086069;28;20040;-71
2023/07/13 09:32:26;;;;;;;3.67;2.90;;;;;;;24.59;53.65;98976.31;5086363;28;20115;-71
2023/07/13 09:34:56;;;;;;;3.65;3.00;;;;;;;24.56;53.36;98975.84;5086656;28;20037;-71
2023/07/13 09:37:29;;;;;;;6.20;3.05;;;;;;;24.79;53.54;98970.41;5085907;28;20041;-71
2023/07/13 09:39:57;;;;;;;4.00;3.17;;;;;;;24.84;52.80;98973.41;5085874;28;20052;-71
2023/07/13 09:42:24;;;;;;;3.95;2.85;;;;;;;24.84;52.44;98987.78;5085190;28;20079;-72
2023/07/13 09:44:54;;;;;;;3.40;2.80;;;;;;;24.90;52.17;98973.50;5086322;28;20044;-72
2023/07/13 09:47:23;;;;;;;4.50;2.92;;;;;;;24.79;52.17;98989.38;5084844;28;20044;-72
2023/07/13 09:49:56;;;;;;;3.97;3.03;;;;;;;24.70;52.49;98985.06;5086345;28;20086;-72
2023/07/13 09:52:22;;;;;;;8.20;3.88;;;;;;;24.81;52.75;98977.31;5085748;28;20055;-71
2023/07/13 09:54:51;;;;;;;3.67;2.72;;;;;;;24.79;52.16;98975.81;5084808;28;20293;-72
2023/07/13 09:57:20;;;;;;;4.20;2.92;;;;;;;24.85;52.02;98967.81;5085862;28;20047;-72
2023/07/13 09:59:51;;;;;;;4.00;2.88;;;;;;;25.10;51.45;98971.13;5085911;28;20052;-72
2023/07/13 10:02:25;;;;;;;4.25;3.15;;;;;;;25.07;51.14;98974.19;5085745;28;20055;-71
2023/07/13 10:04:59;;;;;;;4.82;3.22;;;;;;;25.15;50.53;98992.25;5084619;28;20097;-72
2023/07/13 10:07:26;;;;;;;5.75;3.05;;;;;;;25.26;50.51;98968.22;5086060;28;20044;-72
2023/07/13 10:09:54;;;;;;;3.72;3.15;;;;;;;24.88;50.45;98885.28;5085640;28;20056;-71
2023/07/13 10:12:23;;;;;;;5.50;3.40;;;;;;;25.52;49.95;98965.03;5085669;28;20044;-71
2023/07/13 10:14:53;;;;;;;4.72;3.05;;;;;;;25.20;50.08;98979.81;5085606;28;20063;-71
2023/07/13 10:17:26;;;;;;;4.22;2.70;;;;;;;25.10;50.25;98979.25;5084363;28;20283;-71
2023/07/13 10:19:53;;;;;;;4.40;3.63;;;;;;;25.11;49.97;98974.69;5084473;28;20204;-71
2023/07/13 10:22:28;;;;;;;3.63;2.92;;;;;;;25.38;49.54;98981.34;5084545;28;20086;-71
2023/07/13 10:27:17;;;;;;;4.40;3.08;;;;;;;25.59;49.47;98973.25;5144849;27;20180;-70
2023/07/13 10:29:49;;;;;;;5.53;3.67;;;;;;;25.61;49.19;98981.22;5143377;28;20048;-70
2023/07/13 10:32:16;;;;;;;5.03;3.28;;;;;;;25.63;48.88;98985.41;5144454;28;20039;-70
2023/07/13 10:34:47;;;;;;;4.80;2.95;;;;;;;25.60;48.78;99002.09;5144440;28;20046;-70
2023/07/13 10:37:20;;;;;;;4.28;3.30;;;;;;;25.46;49.17;98984.78;5144181;27;20102;-71
2023/07/13 10:39:48;;;;;;;4.07;2.97;;;;;;;25.38;48.79;98990.31;5144080;28;20085;-70
2023/07/13 10:42:26;;;;;;;4.45;3.22;;;;;;;25.31;48.59;98988.50;5142740;28;20192;-70
2023/07/13 10:44:52;;;;;;;8.93;3.15;;;;;;;25.09;48.36;98980.28;5143673;27;20088;-70
2023/07/13 10:47:20;;;;;;;5.22;3.25;;;;;;;25.15;48.47;99012.06;5143929;28;20104;-71
2023/07/13 10:49:51;;;;;;;3.90;3.20;;;;;;;25.26;48.39;98994.50;5143768;28;20059;-71
2023/07/13 10:52:43;;;;;;;4.40;2.70;;;;;;;25.23;48.26;98989.44;5142647;28;20077;-70
2023/07/13 10:55:35;;;;;;;3.97;3.28;;;;;;;25.23;48.11;98978.59;5143029;28;20043;-71
2023/07/13 10:58:12;;;;;;;4.60;3.50;;;;;;;25.22;48.19;98983.19;5143111;28;20035;-70
2023/07/13 11:00:48;;;;;;;3.63;2.90;;;;;;;25.28;47.74;98974.28;5143363;27;20307;-71
2023/07/13 11:03:18;;;;;;;4.40;3.15;;;;;;;25.28;46.97;98978.88;5143636;28;20039;-70
2023/07/13 11:05:48;;;;;;;3.97;3.22;;;;;;;25.21;47.19;98997.78;5143469;28;20084;-71
2023/07/13 11:08:22;;;;;;;6.53;3.10;;;;;;;25.20;46.26;98976.25;5143509;28;20084;-71
2023/07/13 11:10:54;;;;;;;4.88;2.85;;;;;;;24.87;46.44;98918.81;5143147;28;20118;-70
2023/07/13 11:14:02;;;;;;;6.85;3.00;;;;;;;25.26;46.36;98980.94;5143124;28;20096;-70
2023/07/13 11:16:45;;;;;;;3.40;2.80;;;;;;;25.27;46.06;98975.31;5143522;27;20106;-70
2023/07/13 11:19:49;;;;;;;4.20;3.13;;;;;;;25.39;45.83;98985.72;5143618;27;20043;-70
2023/07/13 11:22:25;;;;;;;4.03;3.20;;;;;;;25.28;45.84;98992.44;5142982;28;20051;-70
2023/07/13 11:24:58;;;;;;;4.15;2.85;;;;;;;25.25;46.12;98985.53;5141862;28;20100;-71
2023/07/13 11:27:37;;;;;;;4.57;3.10;;;;;;;25.43;46.44;98982.47;5143365;28;20043;-70
2023/07/13 11:30:39;;;;;;;4.03;3.08;;;;;;;25.53;46.10;98980.28;5142915;28;20064;-72
2023/07/13 11:33:17;;;;;;;3.97;2.90;;;;;;;25.41;46.17;98978.25;5142645;27;20056;-72
2023/07/13 11:35:54;;;;;;;3.35;2.65;;;;;;;25.43;46.92;98981.63;5143200;28;20039;-70
2023/07/13 11:40:46;;;;;;;3.58;2.40;;;;;;;25.56;47.10;98988.06;5124278;27;20688;-70
2023/07/13 11:43:15;;;;;;;4.95;2.88;;;;;;;25.68;46.66;98998.41;5123344;28;20052;-73
2023/07/13 11:45:42;;;;;;;5.70;2.97;;;;;;;25.78;45.97;98991.66;5122802;28;20070;-72
2023/07/13 11:48:21;;;;;;;3.22;2.60;;;;;;;25.71;45.83;98998.88;5123301;28;20096;-72